createdAt,value
2023-01-13T00:00:01.255Z,78.750000
2023-01-13T00:01:00.452Z,78.750000
2023-01-13T00:02:00.546Z,56.250000
2023-01-13T00:03:00.489Z,56.250000
2023-01-13T00:04:00.547Z,56.250000
2023-01-13T00:05:01.040Z,90.000000
2023-01-13T00:06:00.587Z,90.000000
2023-01-13T00:07:00.516Z,90.000000
2023-01-13T00:08:00.588Z,78.750000
2023-01-13T00:09:00.512Z,78.750000
2023-01-13T00:10:01.243Z,78.750000
2023-01-13T00:11:00.546Z,78.750000
2023-01-13T00:12:00.597Z,78.750000
2023-01-13T00:13:00.532Z,78.750000
2023-01-13T00:14:00.802Z,90.000000
2023-01-13T00:15:01.088Z,90.000000
2023-01-13T00:16:00.697Z,90.000000
2023-01-13T00:17:00.570Z,101.250000
2023-01-13T00:18:00.674Z,101.250000
2023-01-13T00:19:00.607Z,101.250000
2023-01-13T00:20:01.309Z,67.500000
2023-01-13T00:21:00.620Z,67.500000
2023-01-13T00:22:00.819Z,67.500000
2023-01-13T00:23:00.603Z,67.500000
2023-01-13T00:24:00.692Z,78.750000
2023-01-13T00:25:01.096Z,78.750000
2023-01-13T00:26:00.730Z,78.750000
2023-01-13T00:27:00.657Z,78.750000
2023-01-13T00:28:00.721Z,78.750000
2023-01-13T00:29:00.635Z,78.750000
2023-01-13T00:30:01.364Z,67.500000
2023-01-13T00:31:00.719Z,78.750000
2023-01-13T00:32:00.730Z,90.000000
2023-01-13T00:33:00.683Z,90.000000
2023-01-13T00:34:00.757Z,90.000000
2023-01-13T00:35:01.177Z,67.500000
2023-01-13T00:36:00.797Z,67.500000
2023-01-13T00:37:00.677Z,67.500000
2023-01-13T00:38:00.748Z,67.500000
2023-01-13T00:39:00.711Z,67.500000
2023-01-13T00:40:01.409Z,67.500000
2023-01-13T00:41:00.705Z,67.500000
2023-01-13T00:42:00.812Z,67.500000
2023-01-13T00:43:00.743Z,78.750000
2023-01-13T00:44:00.805Z,78.750000
2023-01-13T00:45:01.286Z,78.750000
2023-01-13T00:46:00.835Z,78.750000
2023-01-13T00:47:00.733Z,67.500000
2023-01-13T00:48:00.825Z,67.500000
2023-01-13T00:49:00.750Z,67.500000
2023-01-13T00:50:01.917Z,67.500000
2023-01-13T00:51:00.784Z,67.500000
2023-01-13T00:52:00.860Z,67.500000
2023-01-13T00:53:00.782Z,78.750000
2023-01-13T00:54:00.866Z,78.750000
2023-01-13T00:55:01.306Z,101.250000
2023-01-13T00:56:00.890Z,101.250000
2023-01-13T00:57:00.822Z,101.250000
2023-01-13T00:58:00.936Z,90.000000
2023-01-13T00:59:00.811Z,90.000000
2023-01-13T01:00:01.597Z,90.000000
2023-01-13T01:01:01.133Z,45.000000
2023-01-13T01:02:01.071Z,45.000000
2023-01-13T01:03:00.881Z,78.750000
2023-01-13T01:04:00.964Z,78.750000
2023-01-13T01:05:01.369Z,78.750000
2023-01-13T01:06:00.976Z,67.500000
2023-01-13T01:07:00.875Z,67.500000
2023-01-13T01:08:00.952Z,56.250000
2023-01-13T01:09:00.912Z,56.250000
2023-01-13T01:10:01.623Z,45.000000
2023-01-13T01:11:00.926Z,45.000000
2023-01-13T01:12:00.989Z,45.000000
2023-01-13T01:13:00.911Z,78.750000
2023-01-13T01:14:01.050Z,78.750000
2023-01-13T01:15:01.466Z,78.750000
2023-01-13T01:16:01.075Z,45.000000
2023-01-13T01:17:00.964Z,45.000000
2023-01-13T01:18:01.020Z,67.500000
2023-01-13T01:19:00.981Z,56.250000
2023-01-13T01:20:02.031Z,56.250000
2023-01-13T01:21:00.977Z,56.250000
2023-01-13T01:22:01.078Z,56.250000
2023-01-13T01:23:00.995Z,45.000000
2023-01-13T01:24:01.061Z,45.000000
2023-01-13T01:25:01.528Z,45.000000
2023-01-13T01:26:01.082Z,56.250000
2023-01-13T01:27:01.025Z,56.250000
2023-01-13T01:28:01.090Z,33.750000
2023-01-13T01:29:00.998Z,33.750000
2023-01-13T01:30:01.857Z,33.750000
2023-01-13T01:31:01.031Z,45.000000
2023-01-13T01:32:01.091Z,45.000000
2023-01-13T01:33:01.044Z,67.500000
2023-01-13T01:34:01.163Z,67.500000
2023-01-13T01:35:01.547Z,67.500000
2023-01-13T01:36:01.140Z,45.000000
2023-01-13T01:37:01.051Z,45.000000
2023-01-13T01:38:01.147Z,45.000000
2023-01-13T01:39:01.073Z,45.000000
2023-01-13T01:40:01.806Z,45.000000
2023-01-13T01:41:01.090Z,56.250000
2023-01-13T01:42:01.181Z,56.250000
2023-01-13T01:43:01.083Z,56.250000
2023-01-13T01:44:01.167Z,56.250000
2023-01-13T01:45:02.027Z,56.250000
2023-01-13T01:46:01.247Z,67.500000
2023-01-13T01:47:01.153Z,67.500000
2023-01-13T01:48:01.208Z,78.750000
2023-01-13T01:49:01.132Z,78.750000
2023-01-13T01:50:01.863Z,78.750000
2023-01-13T01:51:01.164Z,56.250000
2023-01-13T01:52:01.279Z,45.000000
2023-01-13T01:53:01.161Z,56.250000
2023-01-13T01:54:01.272Z,56.250000
2023-01-13T01:55:01.667Z,56.250000
2023-01-13T01:56:01.225Z,56.250000
2023-01-13T01:57:01.178Z,56.250000
2023-01-13T01:58:01.270Z,56.250000
2023-01-13T01:59:01.189Z,78.750000
2023-01-13T02:00:02.215Z,78.750000
2023-01-13T02:01:01.335Z,67.500000
2023-01-13T02:02:01.441Z,67.500000
2023-01-13T02:03:01.232Z,56.250000
2023-01-13T02:04:01.294Z,56.250000
2023-01-13T02:05:01.759Z,56.250000
2023-01-13T02:06:00.335Z,67.500000
2023-01-13T02:07:00.240Z,67.500000
2023-01-13T02:08:00.846Z,67.500000
2023-01-13T02:09:00.269Z,67.500000
2023-01-13T02:10:01.095Z,67.500000
2023-01-13T02:11:00.301Z,67.500000
2023-01-13T02:12:00.339Z,56.250000
2023-01-13T02:13:00.283Z,56.250000
2023-01-13T02:14:00.351Z,45.000000
2023-01-13T02:15:00.830Z,45.000000
2023-01-13T02:16:00.635Z,45.000000
2023-01-13T02:17:00.309Z,45.000000
2023-01-13T02:18:00.401Z,45.000000
2023-01-13T02:19:00.301Z,45.000000
2023-01-13T02:20:01.043Z,45.000000
2023-01-13T02:21:00.342Z,45.000000
2023-01-13T02:22:00.826Z,45.000000
2023-01-13T02:23:00.344Z,45.000000
2023-01-13T02:24:00.406Z,45.000000
2023-01-13T02:25:00.834Z,67.500000
2023-01-13T02:26:00.412Z,67.500000
2023-01-13T02:27:00.365Z,45.000000
2023-01-13T02:28:00.463Z,45.000000
2023-01-13T02:29:00.376Z,67.500000
2023-01-13T02:30:01.143Z,67.500000
2023-01-13T02:31:00.376Z,67.500000
2023-01-13T02:32:00.454Z,33.750000
2023-01-13T02:33:00.425Z,33.750000
2023-01-13T02:34:00.513Z,33.750000
2023-01-13T02:35:00.894Z,33.750000
2023-01-13T02:36:00.810Z,33.750000
2023-01-13T02:37:00.407Z,33.750000
2023-01-13T02:38:00.475Z,33.750000
2023-01-13T02:39:00.450Z,45.000000
2023-01-13T02:40:01.575Z,45.000000
2023-01-13T02:41:00.457Z,45.000000
2023-01-13T02:42:00.533Z,22.500000
2023-01-13T02:43:00.455Z,22.500000
2023-01-13T02:44:00.529Z,22.500000
2023-01-13T02:45:01.031Z,56.250000
2023-01-13T02:46:00.672Z,56.250000
2023-01-13T02:47:00.489Z,78.750000
2023-01-13T02:48:00.585Z,78.750000
2023-01-13T02:49:00.520Z,78.750000
2023-01-13T02:50:01.263Z,67.500000
2023-01-13T02:51:00.562Z,67.500000
2023-01-13T02:52:00.633Z,78.750000
2023-01-13T02:53:00.566Z,78.750000
2023-01-13T02:54:00.658Z,78.750000
2023-01-13T02:55:01.079Z,78.750000
2023-01-13T02:56:00.632Z,78.750000
2023-01-13T02:57:00.587Z,78.750000
2023-01-13T02:58:00.885Z,78.750000
2023-01-13T02:59:00.588Z,33.750000
2023-01-13T03:00:01.367Z,33.750000
2023-01-13T03:01:00.699Z,33.750000
2023-01-13T03:02:00.866Z,67.500000
2023-01-13T03:03:00.723Z,67.500000
2023-01-13T03:04:00.686Z,67.500000
2023-01-13T03:05:01.132Z,45.000000
2023-01-13T03:06:00.714Z,45.000000
2023-01-13T03:07:00.639Z,67.500000
2023-01-13T03:08:00.874Z,67.500000
2023-01-13T03:09:00.652Z,67.500000
2023-01-13T03:10:01.355Z,45.000000
2023-01-13T03:11:00.639Z,45.000000
2023-01-13T03:12:00.810Z,45.000000
2023-01-13T03:13:00.640Z,45.000000
2023-01-13T03:14:00.734Z,45.000000
2023-01-13T03:15:01.207Z,45.000000
2023-01-13T03:16:00.922Z,45.000000
2023-01-13T03:17:00.691Z,45.000000
2023-01-13T03:18:00.769Z,45.000000
2023-01-13T03:19:00.681Z,67.500000
2023-01-13T03:20:01.466Z,67.500000
2023-01-13T03:21:00.701Z,67.500000
2023-01-13T03:22:00.835Z,67.500000
2023-01-13T03:23:00.700Z,67.500000
2023-01-13T03:24:00.851Z,67.500000
2023-01-13T03:25:01.509Z,67.500000
2023-01-13T03:26:00.813Z,67.500000
2023-01-13T03:27:00.752Z,0.000000
2023-01-13T03:28:00.818Z,0.000000
2023-01-13T03:29:00.734Z,0.000000
2023-01-13T03:30:01.505Z,0.000000
2023-01-13T03:31:00.771Z,0.000000
2023-01-13T03:32:00.806Z,22.500000
2023-01-13T03:33:00.750Z,22.500000
2023-01-13T03:34:00.846Z,67.500000
2023-01-13T03:35:01.652Z,67.500000
2023-01-13T03:36:00.866Z,67.500000
2023-01-13T03:37:00.792Z,56.250000
2023-01-13T03:38:00.882Z,56.250000
2023-01-13T03:39:00.804Z,56.250000
2023-01-13T03:40:01.576Z,90.000000
2023-01-13T03:41:00.812Z,90.000000
2023-01-13T03:42:00.886Z,90.000000
2023-01-13T03:43:00.814Z,33.750000
2023-01-13T03:44:00.880Z,33.750000
2023-01-13T03:45:01.369Z,33.750000
2023-01-13T03:46:00.994Z,33.750000
2023-01-13T03:47:00.855Z,33.750000
2023-01-13T03:48:00.938Z,33.750000
2023-01-13T03:49:00.838Z,33.750000
2023-01-13T03:50:01.633Z,45.000000
2023-01-13T03:51:00.892Z,45.000000
2023-01-13T03:52:00.982Z,33.750000
2023-01-13T03:53:00.876Z,33.750000
2023-01-13T03:54:01.064Z,33.750000
2023-01-13T03:55:01.375Z,33.750000
2023-01-13T03:56:00.967Z,33.750000
2023-01-13T03:57:00.931Z,101.250000
2023-01-13T03:58:01.108Z,101.250000
2023-01-13T03:59:00.931Z,101.250000
2023-01-13T04:00:01.816Z,56.250000
2023-01-13T04:01:01.075Z,56.250000
2023-01-13T04:02:01.160Z,56.250000
2023-01-13T04:03:00.972Z,78.750000
2023-01-13T04:04:01.124Z,78.750000
2023-01-13T04:05:01.528Z,33.750000
2023-01-13T04:06:01.076Z,33.750000
2023-01-13T04:07:00.995Z,33.750000
2023-01-13T04:08:01.082Z,45.000000
2023-01-13T04:09:01.021Z,45.000000
2023-01-13T04:10:03.087Z,78.750000
2023-01-13T04:11:01.032Z,78.750000
2023-01-13T04:12:01.140Z,78.750000
2023-01-13T04:13:01.053Z,78.750000
2023-01-13T04:14:01.092Z,78.750000
2023-01-13T04:15:01.583Z,56.250000
2023-01-13T04:16:01.200Z,56.250000
2023-01-13T04:17:01.076Z,56.250000
2023-01-13T04:18:01.148Z,45.000000
2023-01-13T04:19:01.085Z,45.000000
2023-01-13T04:20:01.841Z,67.500000
2023-01-13T04:21:01.114Z,67.500000
2023-01-13T04:22:01.310Z,67.500000
2023-01-13T04:23:01.091Z,101.250000
2023-01-13T04:24:01.200Z,101.250000
2023-01-13T04:25:01.981Z,90.000000
2023-01-13T04:26:01.236Z,90.000000
2023-01-13T04:27:01.144Z,90.000000
2023-01-13T04:28:01.214Z,67.500000
2023-01-13T04:29:01.129Z,67.500000
2023-01-13T04:30:02.412Z,67.500000
2023-01-13T04:31:01.275Z,101.250000
2023-01-13T04:32:01.246Z,101.250000
2023-01-13T04:33:01.192Z,45.000000
2023-01-13T04:34:00.283Z,45.000000
2023-01-13T04:35:00.720Z,45.000000
2023-01-13T04:36:00.284Z,0.000000
2023-01-13T04:37:00.180Z,0.000000
2023-01-13T04:38:00.273Z,22.500000
2023-01-13T04:39:00.222Z,22.500000
2023-01-13T04:40:01.152Z,45.000000
2023-01-13T04:41:00.221Z,45.000000
2023-01-13T04:42:00.352Z,45.000000
2023-01-13T04:43:00.234Z,45.000000
2023-01-13T04:44:00.302Z,45.000000
2023-01-13T04:45:00.776Z,45.000000
2023-01-13T04:46:00.450Z,67.500000
2023-01-13T04:47:00.266Z,67.500000
2023-01-13T04:48:00.327Z,78.750000
2023-01-13T04:49:00.287Z,78.750000
2023-01-13T04:50:01.201Z,33.750000
2023-01-13T04:51:00.303Z,33.750000
2023-01-13T04:52:00.385Z,33.750000
2023-01-13T04:53:00.301Z,78.750000
2023-01-13T04:54:00.367Z,78.750000
2023-01-13T04:55:00.826Z,78.750000
2023-01-13T04:56:00.412Z,90.000000
2023-01-13T04:57:00.392Z,90.000000
2023-01-13T04:58:00.446Z,45.000000
2023-01-13T04:59:00.349Z,45.000000
2023-01-13T05:00:01.353Z,45.000000
2023-01-13T05:01:00.407Z,45.000000
2023-01-13T05:02:00.488Z,45.000000
2023-01-13T05:03:00.397Z,78.750000
2023-01-13T05:04:00.449Z,78.750000
2023-01-13T05:05:01.006Z,78.750000
2023-01-13T05:06:00.463Z,67.500000
2023-01-13T05:07:00.414Z,67.500000
2023-01-13T05:08:00.474Z,33.750000
2023-01-13T05:09:00.422Z,33.750000
2023-01-13T05:10:01.132Z,56.250000
2023-01-13T05:11:00.407Z,56.250000
2023-01-13T05:12:00.521Z,56.250000
2023-01-13T05:13:00.417Z,56.250000
2023-01-13T05:14:00.529Z,56.250000
2023-01-13T05:15:01.005Z,56.250000
2023-01-13T05:16:00.593Z,56.250000
2023-01-13T05:17:00.466Z,56.250000
2023-01-13T05:18:00.539Z,33.750000
2023-01-13T05:19:00.473Z,33.750000
2023-01-13T05:20:01.319Z,33.750000
2023-01-13T05:21:00.492Z,45.000000
2023-01-13T05:22:00.589Z,45.000000
2023-01-13T05:23:00.491Z,56.250000
2023-01-13T05:24:00.575Z,56.250000
2023-01-13T05:25:01.450Z,56.250000
2023-01-13T05:26:00.584Z,45.000000
2023-01-13T05:27:00.521Z,45.000000
2023-01-13T05:28:00.832Z,45.000000
2023-01-13T05:29:00.512Z,56.250000
2023-01-13T05:30:01.320Z,56.250000
2023-01-13T05:31:00.591Z,33.750000
2023-01-13T05:32:00.608Z,33.750000
2023-01-13T05:33:00.543Z,33.750000
2023-01-13T05:34:00.632Z,101.250000
2023-01-13T05:35:01.110Z,101.250000
2023-01-13T05:36:00.626Z,67.500000
2023-01-13T05:37:00.554Z,67.500000
2023-01-13T05:38:00.655Z,67.500000
2023-01-13T05:39:00.582Z,67.500000
2023-01-13T05:40:01.641Z,67.500000
2023-01-13T05:41:00.579Z,45.000000
2023-01-13T05:42:00.676Z,45.000000
2023-01-13T05:43:00.592Z,45.000000
2023-01-13T05:44:00.667Z,56.250000
2023-01-13T05:45:01.120Z,56.250000
2023-01-13T05:46:00.846Z,56.250000
2023-01-13T05:47:00.617Z,56.250000
2023-01-13T05:48:00.736Z,56.250000
2023-01-13T05:49:00.641Z,56.250000
2023-01-13T05:50:03.752Z,56.250000
2023-01-13T05:51:00.655Z,56.250000
2023-01-13T05:52:00.747Z,67.500000
2023-01-13T05:53:00.667Z,67.500000
2023-01-13T05:54:00.762Z,22.500000
2023-01-13T05:55:01.184Z,22.500000
2023-01-13T05:56:00.767Z,56.250000
2023-01-13T05:57:00.715Z,56.250000
2023-01-13T05:58:00.824Z,56.250000
2023-01-13T05:59:00.723Z,56.250000
2023-01-13T06:00:01.560Z,56.250000
2023-01-13T06:01:00.836Z,56.250000
2023-01-13T06:02:00.839Z,56.250000
2023-01-13T06:03:00.823Z,56.250000
2023-01-13T06:04:00.922Z,56.250000
2023-01-13T06:05:01.323Z,56.250000
2023-01-13T06:06:00.861Z,22.500000
2023-01-13T06:07:00.782Z,22.500000
2023-01-13T06:08:00.846Z,22.500000
2023-01-13T06:09:00.804Z,67.500000
2023-01-13T06:10:01.584Z,67.500000
2023-01-13T06:11:00.836Z,67.500000
2023-01-13T06:12:00.887Z,78.750000
2023-01-13T06:13:00.813Z,78.750000
2023-01-13T06:14:00.897Z,56.250000
2023-01-13T06:15:01.391Z,56.250000
2023-01-13T06:16:00.975Z,56.250000
2023-01-13T06:17:00.835Z,67.500000
2023-01-13T06:18:00.933Z,67.500000
2023-01-13T06:19:00.844Z,67.500000
2023-01-13T06:20:02.018Z,67.500000
2023-01-13T06:21:00.890Z,101.250000
2023-01-13T06:22:00.980Z,101.250000
2023-01-13T06:23:00.918Z,101.250000
2023-01-13T06:24:01.005Z,56.250000
2023-01-13T06:25:01.417Z,56.250000
2023-01-13T06:26:00.962Z,56.250000
2023-01-13T06:27:00.932Z,45.000000
2023-01-13T06:28:01.014Z,45.000000
2023-01-13T06:29:00.916Z,56.250000
2023-01-13T06:30:01.669Z,56.250000
2023-01-13T06:31:01.080Z,56.250000
2023-01-13T06:32:01.158Z,56.250000
2023-01-13T06:33:00.976Z,56.250000
2023-01-13T06:34:01.083Z,45.000000
2023-01-13T06:35:02.716Z,45.000000
2023-01-13T06:36:01.054Z,45.000000
2023-01-13T06:37:01.137Z,45.000000
2023-01-13T06:38:01.159Z,45.000000
2023-01-13T06:39:01.004Z,11.250000
2023-01-13T06:40:01.759Z,11.250000
2023-01-13T06:41:01.003Z,22.500000
2023-01-13T06:42:01.087Z,22.500000
2023-01-13T06:43:01.000Z,22.500000
2023-01-13T06:44:01.081Z,22.500000
2023-01-13T06:45:01.497Z,22.500000
2023-01-13T06:46:01.140Z,22.500000
2023-01-13T06:47:01.074Z,56.250000
2023-01-13T06:48:01.090Z,56.250000
2023-01-13T06:49:01.039Z,56.250000
2023-01-13T06:50:03.166Z,78.750000
2023-01-13T06:51:01.061Z,78.750000
2023-01-13T06:52:01.164Z,56.250000
2023-01-13T06:53:01.080Z,56.250000
2023-01-13T06:54:16.759Z,56.250000
2023-01-13T06:55:01.631Z,56.250000
2023-01-13T06:56:01.165Z,56.250000
2023-01-13T06:57:01.098Z,78.750000
2023-01-13T06:58:01.178Z,78.750000
2023-01-13T06:59:01.182Z,78.750000
2023-01-13T07:00:01.862Z,56.250000
2023-01-13T07:01:01.269Z,56.250000
2023-01-13T07:02:01.327Z,22.500000
2023-01-13T07:03:01.147Z,22.500000
2023-01-13T07:04:01.237Z,22.500000
2023-01-13T07:05:02.157Z,78.750000
2023-01-13T07:06:01.276Z,78.750000
2023-01-13T07:07:01.166Z,78.750000
2023-01-13T07:08:01.238Z,22.500000
2023-01-13T07:09:01.177Z,22.500000
2023-01-13T07:10:02.010Z,33.750000
2023-01-13T07:11:01.193Z,33.750000
2023-01-13T07:12:01.309Z,33.750000
2023-01-13T07:13:01.208Z,45.000000
2023-01-13T07:14:00.288Z,45.000000
2023-01-13T07:15:01.112Z,56.250000
2023-01-13T07:16:00.421Z,56.250000
2023-01-13T07:17:00.242Z,67.500000
2023-01-13T07:18:00.294Z,67.500000
2023-01-13T07:19:00.233Z,67.500000
2023-01-13T07:20:01.033Z,45.000000
2023-01-13T07:21:00.283Z,45.000000
2023-01-13T07:22:00.376Z,45.000000
2023-01-13T07:23:00.275Z,67.500000
2023-01-13T07:24:00.359Z,67.500000
2023-01-13T07:25:00.822Z,67.500000
2023-01-13T07:26:00.356Z,67.500000
2023-01-13T07:27:00.300Z,56.250000
2023-01-13T07:28:00.404Z,56.250000
2023-01-13T07:29:00.308Z,56.250000
2023-01-13T07:30:01.416Z,56.250000
2023-01-13T07:31:00.313Z,56.250000
2023-01-13T07:32:00.491Z,56.250000
2023-01-13T07:33:00.333Z,78.750000
2023-01-13T07:34:00.415Z,78.750000
2023-01-13T07:35:00.901Z,78.750000
2023-01-13T07:36:00.431Z,56.250000
2023-01-13T07:37:00.354Z,56.250000
2023-01-13T07:38:00.652Z,56.250000
2023-01-13T07:39:00.363Z,56.250000
2023-01-13T07:40:01.160Z,45.000000
2023-01-13T07:41:00.371Z,45.000000
2023-01-13T07:42:00.483Z,45.000000
2023-01-13T07:43:00.396Z,56.250000
2023-01-13T07:44:00.581Z,56.250000
2023-01-13T07:45:00.976Z,33.750000
2023-01-13T07:46:00.783Z,33.750000
2023-01-13T07:47:00.421Z,33.750000
2023-01-13T07:48:00.501Z,56.250000
2023-01-13T07:49:00.420Z,56.250000
2023-01-13T07:50:01.181Z,56.250000
2023-01-13T07:51:00.462Z,56.250000
2023-01-13T07:52:00.521Z,56.250000
2023-01-13T07:53:00.439Z,56.250000
2023-01-13T07:54:00.554Z,56.250000
2023-01-13T07:55:00.947Z,56.250000
2023-01-13T07:56:00.556Z,67.500000
2023-01-13T07:57:00.486Z,67.500000
2023-01-13T07:58:00.566Z,56.250000
2023-01-13T07:59:00.487Z,56.250000
2023-01-13T08:00:01.240Z,33.750000
2023-01-13T08:01:00.609Z,33.750000
2023-01-13T08:02:01.078Z,22.500000
2023-01-13T08:03:00.560Z,22.500000
2023-01-13T08:04:00.599Z,22.500000
2023-01-13T08:05:01.096Z,33.750000
2023-01-13T08:06:00.596Z,33.750000
2023-01-13T08:07:00.538Z,33.750000
2023-01-13T08:08:00.597Z,67.500000
2023-01-13T08:09:00.577Z,67.500000
2023-01-13T08:10:01.724Z,78.750000
2023-01-13T08:11:00.538Z,78.750000
2023-01-13T08:12:00.630Z,56.250000
2023-01-13T08:13:00.562Z,56.250000
2023-01-13T08:14:00.622Z,56.250000
2023-01-13T08:15:01.192Z,45.000000
2023-01-13T08:16:00.637Z,45.000000
2023-01-13T08:17:00.602Z,45.000000
2023-01-13T08:18:00.671Z,90.000000
2023-01-13T08:19:00.585Z,90.000000
2023-01-13T08:20:01.327Z,78.750000
2023-01-13T08:21:00.604Z,78.750000
2023-01-13T08:22:00.690Z,78.750000
2023-01-13T08:23:00.601Z,67.500000
2023-01-13T08:24:00.702Z,67.500000
2023-01-13T08:25:01.124Z,67.500000
2023-01-13T08:26:00.725Z,45.000000
2023-01-13T08:27:00.629Z,45.000000
2023-01-13T08:28:00.919Z,56.250000
2023-01-13T08:29:00.627Z,56.250000
2023-01-13T08:30:01.821Z,56.250000
2023-01-13T08:31:00.726Z,45.000000
2023-01-13T08:32:00.716Z,45.000000
2023-01-13T08:33:00.669Z,56.250000
2023-01-13T08:34:00.730Z,56.250000
2023-01-13T08:35:01.196Z,45.000000
2023-01-13T08:36:00.753Z,45.000000
2023-01-13T08:37:00.684Z,45.000000
2023-01-13T08:38:00.748Z,45.000000
2023-01-13T08:39:00.688Z,45.000000
2023-01-13T08:40:01.585Z,45.000000
2023-01-13T08:41:00.702Z,56.250000
2023-01-13T08:42:00.812Z,56.250000
2023-01-13T08:43:00.714Z,78.750000
2023-01-13T08:44:00.773Z,78.750000
2023-01-13T08:45:01.280Z,78.750000
2023-01-13T08:46:00.878Z,56.250000
2023-01-13T08:47:00.737Z,56.250000
2023-01-13T08:48:00.858Z,56.250000
2023-01-13T08:49:00.759Z,78.750000
2023-01-13T08:50:01.487Z,78.750000
2023-01-13T08:51:00.768Z,67.500000
2023-01-13T08:52:00.872Z,67.500000
2023-01-13T08:53:00.759Z,67.500000
2023-01-13T08:54:00.857Z,78.750000
2023-01-13T08:55:01.286Z,78.750000
2023-01-13T08:56:00.873Z,67.500000
2023-01-13T08:57:00.936Z,67.500000
2023-01-13T08:58:14.424Z,67.500000
2023-01-13T08:59:00.815Z,67.500000
2023-01-13T09:00:01.651Z,67.500000
2023-01-13T09:01:00.938Z,33.750000
2023-01-13T09:02:01.096Z,33.750000
2023-01-13T09:03:00.860Z,33.750000
2023-01-13T09:04:02.069Z,45.000000
2023-01-13T09:05:01.730Z,45.000000
2023-01-13T09:06:00.987Z,78.750000
2023-01-13T09:07:00.891Z,78.750000
2023-01-13T09:08:01.603Z,67.500000
2023-01-13T09:09:00.891Z,67.500000
2023-01-13T09:10:02.117Z,67.500000
2023-01-13T09:11:00.894Z,56.250000
2023-01-13T09:12:00.997Z,56.250000
2023-01-13T09:13:00.927Z,56.250000
2023-01-13T09:14:03.475Z,56.250000
2023-01-13T09:15:01.534Z,56.250000
2023-01-13T09:16:03.129Z,67.500000
2023-01-13T09:17:00.977Z,67.500000
2023-01-13T09:18:01.060Z,67.500000
2023-01-13T09:19:00.966Z,67.500000
2023-01-13T09:20:01.660Z,67.500000
2023-01-13T09:21:00.991Z,67.500000
2023-01-13T09:22:01.091Z,67.500000
2023-01-13T09:23:00.996Z,67.500000
2023-01-13T09:24:01.084Z,56.250000
2023-01-13T09:25:01.497Z,56.250000
2023-01-13T09:26:01.068Z,67.500000
2023-01-13T09:27:01.009Z,67.500000
2023-01-13T09:28:01.153Z,67.500000
2023-01-13T09:29:01.037Z,56.250000
2023-01-13T09:30:02.081Z,56.250000
2023-01-13T09:31:01.114Z,33.750000
2023-01-13T09:32:01.093Z,33.750000
2023-01-13T09:33:01.054Z,33.750000
2023-01-13T09:34:01.205Z,45.000000
2023-01-13T09:35:01.818Z,45.000000
2023-01-13T09:36:01.219Z,45.000000
2023-01-13T09:37:01.060Z,45.000000
2023-01-13T09:38:01.148Z,45.000000
2023-01-13T09:39:01.086Z,56.250000
2023-01-13T09:40:03.340Z,56.250000
2023-01-13T09:41:01.077Z,45.000000
2023-01-13T09:42:01.211Z,45.000000
2023-01-13T09:43:01.096Z,45.000000
2023-01-13T09:44:01.181Z,67.500000
2023-01-13T09:45:01.637Z,67.500000
2023-01-13T09:46:01.441Z,67.500000
2023-01-13T09:47:01.145Z,78.750000
2023-01-13T09:48:01.357Z,78.750000
2023-01-13T09:49:01.246Z,78.750000
2023-01-13T09:50:02.192Z,67.500000
2023-01-13T09:51:01.215Z,67.500000
2023-01-13T09:52:01.299Z,78.750000
2023-01-13T09:53:01.190Z,78.750000
2023-01-13T09:54:01.351Z,67.500000
2023-01-13T09:55:00.708Z,67.500000
2023-01-13T09:56:00.269Z,67.500000
2023-01-13T09:57:00.192Z,67.500000
2023-01-13T09:58:00.316Z,67.500000
2023-01-13T09:59:00.270Z,67.500000
2023-01-13T10:00:01.568Z,56.250000
2023-01-13T10:01:00.278Z,56.250000
2023-01-13T10:02:00.342Z,67.500000
2023-01-13T10:03:00.309Z,67.500000
2023-01-13T10:04:00.351Z,56.250000
2023-01-13T10:05:00.851Z,56.250000
2023-01-13T10:06:00.395Z,56.250000
2023-01-13T10:07:00.313Z,67.500000
2023-01-13T10:08:00.366Z,67.500000
2023-01-13T10:09:00.356Z,67.500000
2023-01-13T10:10:01.654Z,78.750000
2023-01-13T10:11:00.380Z,78.750000
2023-01-13T10:12:00.418Z,78.750000
2023-01-13T10:13:00.348Z,78.750000
2023-01-13T10:14:00.420Z,78.750000
2023-01-13T10:15:00.865Z,67.500000
2023-01-13T10:16:02.927Z,67.500000
2023-01-13T10:17:00.363Z,67.500000
2023-01-13T10:18:00.497Z,67.500000
2023-01-13T10:19:00.392Z,67.500000
2023-01-13T10:20:01.476Z,78.750000
2023-01-13T10:21:00.429Z,78.750000
2023-01-13T10:22:00.512Z,78.750000
2023-01-13T10:23:00.415Z,78.750000
2023-01-13T10:24:00.509Z,78.750000
2023-01-13T10:25:00.978Z,78.750000
2023-01-13T10:26:00.578Z,78.750000
2023-01-13T10:27:00.465Z,78.750000
2023-01-13T10:28:00.550Z,78.750000
2023-01-13T10:29:00.473Z,78.750000
2023-01-13T10:30:01.791Z,67.500000
2023-01-13T10:31:00.562Z,67.500000
2023-01-13T10:32:00.542Z,67.500000
2023-01-13T10:33:00.478Z,67.500000
2023-01-13T10:34:00.586Z,67.500000
2023-01-13T10:35:01.017Z,78.750000
2023-01-13T10:36:00.611Z,78.750000
2023-01-13T10:37:00.498Z,78.750000
2023-01-13T10:38:00.587Z,90.000000
2023-01-13T10:39:00.555Z,90.000000
2023-01-13T10:40:01.907Z,67.500000
2023-01-13T10:41:00.529Z,67.500000
2023-01-13T10:42:00.602Z,56.250000
2023-01-13T10:43:00.541Z,56.250000
2023-01-13T10:44:00.603Z,56.250000
2023-01-13T10:45:01.058Z,67.500000
2023-01-13T10:46:12.636Z,67.500000
2023-01-13T10:47:00.566Z,67.500000
2023-01-13T10:48:00.628Z,67.500000
2023-01-13T10:49:00.581Z,67.500000
2023-01-13T10:50:03.315Z,67.500000
2023-01-13T10:51:00.600Z,67.500000
2023-01-13T10:52:00.830Z,67.500000
2023-01-13T10:53:00.592Z,56.250000
2023-01-13T10:54:00.666Z,56.250000
2023-01-13T10:55:01.451Z,56.250000
2023-01-13T10:56:00.678Z,56.250000
2023-01-13T10:57:00.667Z,56.250000
2023-01-13T10:58:00.706Z,78.750000
2023-01-13T10:59:00.639Z,78.750000
2023-01-13T11:00:02.620Z,67.500000
2023-01-13T11:01:00.786Z,67.500000
2023-01-13T11:02:01.206Z,67.500000
2023-01-13T11:03:00.686Z,67.500000
2023-01-13T11:04:00.751Z,67.500000
2023-01-13T11:05:01.327Z,33.750000
2023-01-13T11:06:00.762Z,33.750000
2023-01-13T11:07:00.679Z,56.250000
2023-01-13T11:08:00.762Z,56.250000
2023-01-13T11:09:00.686Z,56.250000
2023-01-13T11:10:01.386Z,56.250000
2023-01-13T11:11:00.693Z,56.250000
2023-01-13T11:12:00.769Z,45.000000
2023-01-13T11:13:00.745Z,45.000000
2023-01-13T11:14:00.793Z,45.000000
2023-01-13T11:15:01.214Z,67.500000
2023-01-13T11:16:00.882Z,67.500000
2023-01-13T11:17:00.724Z,67.500000
2023-01-13T11:18:00.828Z,67.500000
2023-01-13T11:19:00.748Z,67.500000
2023-01-13T11:20:01.482Z,67.500000
2023-01-13T11:21:00.772Z,67.500000
2023-01-13T11:22:00.884Z,67.500000
2023-01-13T11:23:00.769Z,67.500000